Check out our new BloomSky Weather System.

Active alerts


No alerts


Thunder radar  blitzortung!


Rain radar more information rain snow radar


Visit our other weather sites:

Template documentation
and downloads

And another site



Weather Underground History page Text

Daily Summary for April 14, 2017 Units:  English    Metric   Both
« Previous Day
Next Day »
Daily Weekly Monthly Yearly Custom
  High: Low: Average:
Temperature: 81.7 °F 60.8 °F 71.1 °F
Dew Point: 69.8 °F 60.3 °F 64.3 °F
Humidity: 99 % 56 % 81 %
Wind Speed: 11.0 mph 0.0 mph 2.2 mph
Wind Gust: 15.0 mph - -
Wind:- - SE
Pressure: 30.13 in 30.02 in -
Precipitation: 0.00 in    
Historical Graphs
 
 
Tabular Data for April 14, 2017
Time Temperature Dew Point Pressure Wind Wind Speed Wind Gust Humidity Rainfall Rate (Hourly)
00:04 65.5 °F 63.1 °F 30.12 in Calm     92 % 0.00 in
00:09 65.5 °F 63.1 °F 30.12 in Calm     92 % 0.00 in
00:14 65.3 °F 63.0 °F 30.12 in Calm     92 % 0.00 in
00:19 64.9 °F 62.6 °F 30.12 in Calm     92 % 0.00 in
00:24 64.8 °F 62.4 °F 30.12 in Calm     92 % 0.00 in
00:29 64.6 °F 62.4 °F 30.13 in Calm     93 % 0.00 in
00:34 64.2 °F 62.2 °F 30.13 in Calm     93 % 0.00 in
00:39 64.0 °F 62.1 °F 30.13 in Calm     93 % 0.00 in
00:44 64.0 °F 62.2 °F 30.13 in Calm     94 % 0.00 in
00:49 63.9 °F 62.1 °F 30.13 in Calm     94 % 0.00 in
00:54 63.9 °F 62.1 °F 30.12 in Calm     94 % 0.00 in
00:59 63.9 °F 62.1 °F 30.12 in Calm     94 % 0.00 in
01:04 63.7 °F 61.9 °F 30.12 in Calm     94 % 0.00 in
01:09 63.5 °F 61.7 °F 30.12 in Calm     94 % 0.00 in
01:14 63.3 °F 61.9 °F 30.12 in Calm     95 % 0.00 in
01:19 63.3 °F 61.9 °F 30.12 in Calm     95 % 0.00 in
01:24 63.3 °F 61.9 °F 30.12 in Calm     95 % 0.00 in
01:29 63.1 °F 61.7 °F 30.12 in Calm     95 % 0.00 in
01:34 63.1 °F 61.7 °F 30.12 in Calm     95 % 0.00 in
01:39 63.1 °F 61.7 °F 30.12 in Calm     95 % 0.00 in
01:44 63.0 °F 61.9 °F 30.12 in Calm     96 % 0.00 in
01:49 63.0 °F 61.5 °F 30.12 in Calm     95 % 0.00 in
01:54 62.8 °F 61.7 °F 30.12 in Calm     96 % 0.00 in
01:59 62.6 °F 61.5 °F 30.12 in Calm     96 % 0.00 in
02:04 62.4 °F 61.3 °F 30.12 in Calm     96 % 0.00 in
02:09 62.4 °F 61.3 °F 30.12 in Calm     96 % 0.00 in
02:14 62.6 °F 61.5 °F 30.12 in Calm     96 % 0.00 in
02:19 62.4 °F 61.3 °F 30.12 in Calm     96 % 0.00 in
02:24 62.4 °F 61.3 °F 30.12 in Calm     96 % 0.00 in
02:29 62.2 °F 61.2 °F 30.11 in Calm     96 % 0.00 in
02:34 62.2 °F 61.2 °F 30.11 in Calm     96 % 0.00 in
02:39 62.2 °F 61.2 °F 30.11 in Calm     96 % 0.00 in
02:45 62.1 °F 61.0 °F 30.11 in Calm     96 % 0.00 in
02:50 61.7 °F 60.6 °F 30.11 in Calm     96 % 0.00 in
02:55 61.9 °F 61.0 °F 30.11 in Calm     97 % 0.00 in
03:00 61.9 °F 61.0 °F 30.11 in Calm     97 % 0.00 in
03:05 61.7 °F 60.8 °F 30.11 in Calm     97 % 0.00 in
03:10 61.5 °F 60.6 °F 30.11 in Calm     97 % 0.00 in
03:15 61.5 °F 60.6 °F 30.11 in Calm     97 % 0.00 in
03:20 61.3 °F 60.4 °F 30.10 in Calm     97 % 0.00 in
03:25 61.3 °F 60.4 °F 30.10 in Calm     97 % 0.00 in
03:30 61.2 °F 60.3 °F 30.10 in Calm     97 % 0.00 in
03:35 61.3 °F 60.4 °F 30.09 in Calm     97 % 0.00 in
03:40 61.3 °F 60.4 °F 30.09 in Calm     97 % 0.00 in
03:45 61.3 °F 60.4 °F 30.09 in Calm     97 % 0.00 in
03:50 61.3 °F 60.4 °F 30.09 in Calm     97 % 0.00 in
03:55 61.5 °F 60.6 °F 30.09 in Calm     97 % 0.00 in
04:00 61.7 °F 60.8 °F 30.09 in Calm     97 % 0.00 in
04:05 61.3 °F 60.4 °F 30.09 in Calm     97 % 0.00 in
04:10 61.3 °F 60.4 °F 30.09 in Calm     97 % 0.00 in
04:15 61.2 °F 60.3 °F 30.09 in Calm     97 % 0.00 in
04:20 61.3 °F 60.4 °F 30.09 in Calm     97 % 0.00 in
04:25 61.2 °F 60.3 °F 30.09 in Calm     97 % 0.00 in
04:30 61.2 °F 60.6 °F 30.09 in Calm     98 % 0.00 in
04:35 61.2 °F 60.6 °F 30.09 in Calm     98 % 0.00 in
04:40 61.2 °F 60.6 °F 30.09 in Calm     98 % 0.00 in
04:45 61.3 °F 60.8 °F 30.09 in Calm   1.0 mph 98 % 0.00 in
04:50 61.3 °F 60.8 °F 30.09 in Calm   1.0 mph 98 % 0.00 in
04:55 61.3 °F 60.8 °F 30.08 in Calm   1.0 mph 98 % 0.00 in
05:00 61.2 °F 60.6 °F 30.08 in Calm     98 % 0.00 in
05:05 61.2 °F 60.6 °F 30.08 in Calm     98 % 0.00 in
05:10 61.2 °F 60.6 °F 30.08 in Calm     98 % 0.00 in
05:16 61.2 °F 60.6 °F 30.08 in Calm     98 % 0.00 in
05:21 61.2 °F 60.6 °F 30.08 in Calm     98 % 0.00 in
05:26 61.3 °F 60.8 °F 30.08 in Calm   1.0 mph 98 % 0.00 in
05:31 61.3 °F 60.8 °F 30.08 in Calm   1.0 mph 98 % 0.00 in
05:36 61.2 °F 60.6 °F 30.08 in Calm   1.0 mph 98 % 0.00 in
05:41 61.2 °F 60.6 °F 30.07 in Calm     98 % 0.00 in
05:46 61.2 °F 60.6 °F 30.08 in Calm     98 % 0.00 in
05:51 61.2 °F 60.6 °F 30.08 in Calm     98 % 0.00 in
05:56 61.0 °F 60.4 °F 30.08 in Calm     98 % 0.00 in
06:01 61.2 °F 60.6 °F 30.08 in Calm     98 % 0.00 in
06:06 61.3 °F 60.8 °F 30.08 in Calm   1.0 mph 98 % 0.00 in
06:11 61.2 °F 60.6 °F 30.08 in Calm   1.0 mph 98 % 0.00 in
06:16 61.2 °F 60.6 °F 30.08 in Calm   1.0 mph 98 % 0.00 in
06:21 61.2 °F 60.6 °F 30.08 in Calm     98 % 0.00 in
06:26 61.3 °F 60.8 °F 30.08 in Calm     98 % 0.00 in
06:31 61.3 °F 60.8 °F 30.08 in Calm   1.0 mph 98 % 0.00 in
06:36 61.2 °F 60.6 °F 30.08 in Calm   1.0 mph 98 % 0.00 in
06:41 61.2 °F 60.6 °F 30.08 in Calm   1.0 mph 98 % 0.00 in
06:46 61.0 °F 60.4 °F 30.08 in Calm     98 % 0.00 in
06:51 60.8 °F 60.3 °F 30.08 in Calm     98 % 0.00 in
06:56 61.0 °F 60.4 °F 30.09 in Calm     98 % 0.00 in
07:01 61.0 °F 60.6 °F 30.09 in Calm   1.0 mph 99 % 0.00 in
07:06 61.0 °F 60.6 °F 30.09 in Calm   1.0 mph 99 % 0.00 in
07:11 61.2 °F 60.8 °F 30.09 in Calm   1.0 mph 99 % 0.00 in
07:16 61.3 °F 61.0 °F 30.09 in Calm   1.0 mph 99 % 0.00 in
07:21 61.7 °F 61.3 °F 30.09 in Calm   1.0 mph 99 % 0.00 in
07:26 62.1 °F 61.7 °F 30.09 in Calm   1.0 mph 99 % 0.00 in
07:31 62.4 °F 62.1 °F 30.09 in Calm   3.0 mph 99 % 0.00 in
07:36 62.8 °F 62.4 °F 30.09 in East 1.0 mph 3.0 mph 99 % 0.00 in
07:41 63.1 °F 62.8 °F 30.09 in East 1.0 mph 3.0 mph 99 % 0.00 in
07:46 63.3 °F 63.0 °F 30.09 in Calm   2.0 mph 99 % 0.00 in
07:51 63.5 °F 63.1 °F 30.10 in Calm   2.0 mph 99 % 0.00 in
07:56 63.7 °F 63.3 °F 30.10 in East 1.0 mph 3.0 mph 99 % 0.00 in
08:01 63.9 °F 63.5 °F 30.10 in Calm   3.0 mph 99 % 0.00 in
08:06 64.0 °F 63.7 °F 30.10 in Calm   3.0 mph 99 % 0.00 in
08:11 64.2 °F 63.9 °F 30.10 in ENE 2.0 mph 4.0 mph 99 % 0.00 in
08:16 64.6 °F 64.2 °F 30.10 in SSE 1.0 mph 4.0 mph 99 % 0.00 in
08:21 64.8 °F 64.4 °F 30.10 in Calm   4.0 mph 99 % 0.00 in
08:26 65.5 °F 65.1 °F 30.10 in Calm   4.0 mph 99 % 0.00 in
08:31 65.7 °F 65.3 °F 30.10 in North 2.0 mph 4.0 mph 99 % 0.00 in
08:37 66.0 °F 65.7 °F 30.10 in NE 1.0 mph 5.0 mph 99 % 0.00 in
08:42 66.6 °F 66.2 °F 30.10 in Calm   5.0 mph 99 % 0.00 in
08:47 66.9 °F 66.6 °F 30.10 in ESE 2.0 mph 5.0 mph 99 % 0.00 in
08:52 67.3 °F 66.9 °F 30.11 in Calm   4.0 mph 99 % 0.00 in
08:56 67.8 °F 67.5 °F 30.11 in ESE 1.0 mph 5.0 mph 99 % 0.00 in
09:02 68.4 °F 67.8 °F 30.11 in Calm   5.0 mph 98 % 0.00 in
09:07 69.1 °F 68.5 °F 30.11 in SE 2.0 mph 5.0 mph 98 % 0.00 in
09:12 69.3 °F 68.4 °F 30.11 in Calm   6.0 mph 97 % 0.00 in
09:17 70.0 °F 69.1 °F 30.11 in ESE 2.0 mph 6.0 mph 97 % 0.00 in
09:22 70.5 °F 69.1 °F 30.11 in SSE 1.0 mph 6.0 mph 95 % 0.00 in
09:27 71.6 °F 69.8 °F 30.11 in North 2.0 mph 6.0 mph 94 % 0.00 in
09:32 72.0 °F 69.3 °F 30.11 in SE 5.0 mph 9.0 mph 91 % 0.00 in
09:37 72.3 °F 68.9 °F 30.10 in SE 1.0 mph 10.0 mph 89 % 0.00 in
09:42 72.7 °F 68.2 °F 30.10 in SE 4.0 mph 10.0 mph 86 % 0.00 in
09:47 72.9 °F 68.4 °F 30.11 in SE 1.0 mph 11.0 mph 86 % 0.00 in
09:52 73.2 °F 68.4 °F 30.10 in SSE 2.0 mph 11.0 mph 85 % 0.00 in
09:57 73.6 °F 68.4 °F 30.10 in SE 1.0 mph 11.0 mph 84 % 0.00 in
10:02 73.9 °F 68.4 °F 30.10 in SSW 4.0 mph 8.0 mph 83 % 0.00 in
10:07 74.7 °F 69.1 °F 30.10 in ESE 1.0 mph 8.0 mph 83 % 0.00 in
10:12 74.8 °F 68.5 °F 30.10 in WSW 5.0 mph 8.0 mph 81 % 0.00 in
10:17 74.7 °F 67.3 °F 30.11 in SE 6.0 mph 12.0 mph 78 % 0.00 in
10:22 74.7 °F 67.3 °F 30.11 in SE 2.0 mph 12.0 mph 78 % 0.00 in
10:27 75.6 °F 68.2 °F 30.11 in ESE 2.0 mph 12.0 mph 78 % 0.00 in
10:32 75.4 °F 67.3 °F 30.11 in ESE 6.0 mph 10.0 mph 76 % 0.00 in
10:33 75.2 °F 67.1 °F 30.11 in SE 4.0 mph 10.0 mph 76 % 0.00 in
10:38 75.4 °F 68.0 °F 30.11 in ESE 3.0 mph 10.0 mph 78 % 0.00 in
10:43 75.4 °F 67.3 °F 30.11 in ESE 7.0 mph 10.0 mph 76 % 0.00 in
10:48 75.0 °F 66.6 °F 30.11 in SE 4.0 mph 11.0 mph 75 % 0.00 in
10:53 75.4 °F 68.0 °F 30.11 in South 5.0 mph 11.0 mph 78 % 0.00 in
10:58 76.5 °F 67.6 °F 30.11 in SE 2.0 mph 11.0 mph 74 % 0.00 in
11:03 77.2 °F 67.8 °F 30.11 in SSE 4.0 mph 9.0 mph 73 % 0.00 in
11:08 76.8 °F 67.1 °F 30.11 in SE 2.0 mph 10.0 mph 72 % 0.00 in
11:13 77.0 °F 67.3 °F 30.11 in SW 4.0 mph 10.0 mph 72 % 0.00 in
11:18 77.5 °F 66.6 °F 30.11 in SE 3.0 mph 10.0 mph 69 % 0.00 in
11:23 77.7 °F 67.1 °F 30.11 in ESE 3.0 mph 10.0 mph 70 % 0.00 in
11:28 77.7 °F 66.4 °F 30.11 in SE 6.0 mph 10.0 mph 68 % 0.00 in
11:33 77.7 °F 67.1 °F 30.11 in SE 6.0 mph 10.0 mph 70 % 0.00 in
11:38 78.1 °F 67.1 °F 30.11 in ENE 2.0 mph 12.0 mph 69 % 0.00 in
11:43 78.3 °F 66.4 °F 30.11 in SE 8.0 mph 12.0 mph 67 % 0.00 in
11:48 77.4 °F 66.0 °F 30.11 in ESE 5.0 mph 12.0 mph 68 % 0.00 in
11:53 77.0 °F 66.0 °F 30.11 in SSE 4.0 mph 11.0 mph 69 % 0.00 in
11:59 76.6 °F 65.7 °F 30.10 in SE 2.0 mph 10.0 mph 69 % 0.00 in
12:04 77.4 °F 67.3 °F 30.10 in SE 6.0 mph 8.0 mph 71 % 0.00 in
12:09 78.1 °F 66.7 °F 30.10 in SSE 7.0 mph 11.0 mph 68 % 0.00 in
12:14 78.4 °F 66.2 °F 30.10 in SSW 8.0 mph 11.0 mph 66 % 0.00 in
12:19 78.8 °F 66.6 °F 30.09 in SE 6.0 mph 11.0 mph 66 % 0.00 in
12:24 79.0 °F 66.6 °F 30.09 in NNE 5.0 mph 11.0 mph 66 % 0.00 in
12:29 79.2 °F 65.5 °F 30.09 in SSE 6.0 mph 11.0 mph 63 % 0.00 in
12:34 79.5 °F 66.7 °F 30.09 in SE 4.0 mph 11.0 mph 65 % 0.00 in
12:39 79.5 °F 64.9 °F 30.09 in SE 4.0 mph 10.0 mph 61 % 0.00 in
12:44 79.5 °F 65.8 °F 30.09 in ESE 4.0 mph 12.0 mph 63 % 0.00 in
12:49 79.9 °F 65.3 °F 30.09 in ESE 4.0 mph 12.0 mph 61 % 0.00 in
12:54 79.5 °F 65.8 °F 30.09 in ESE 2.0 mph 12.0 mph 63 % 0.00 in
12:59 79.7 °F 66.0 °F 30.09 in SE 2.0 mph 9.0 mph 63 % 0.00 in
13:04 79.9 °F 65.3 °F 30.08 in ESE 4.0 mph 10.0 mph 61 % 0.00 in
13:09 79.5 °F 65.3 °F 30.08 in East 5.0 mph 10.0 mph 62 % 0.00 in
13:14 79.2 °F 65.5 °F 30.08 in SSW 4.0 mph 10.0 mph 63 % 0.00 in
13:19 78.8 °F 65.1 °F 30.08 in SSE 2.0 mph 10.0 mph 63 % 0.00 in
13:24 79.0 °F 64.8 °F 30.08 in ENE 7.0 mph 9.0 mph 62 % 0.00 in
13:29 78.8 °F 65.1 °F 30.07 in East 4.0 mph 9.0 mph 63 % 0.00 in
13:34 78.6 °F 64.9 °F 30.07 in ESE 3.0 mph 9.0 mph 63 % 0.00 in
13:39 78.6 °F 65.5 °F 30.07 in East 2.0 mph 11.0 mph 64 % 0.00 in
13:44 79.0 °F 64.8 °F 30.07 in NE 6.0 mph 11.0 mph 62 % 0.00 in
13:49 79.9 °F 65.7 °F 30.06 in ENE 3.0 mph 11.0 mph 62 % 0.00 in
13:54 80.1 °F 64.9 °F 30.06 in SE 8.0 mph 10.0 mph 60 % 0.00 in
13:59 80.6 °F 65.5 °F 30.06 in East 5.0 mph 12.0 mph 60 % 0.00 in
14:00 80.6 °F 65.5 °F 30.06 in ESE 2.0 mph 12.0 mph 60 % 0.00 in
14:05 81.0 °F 65.8 °F 30.06 in SSE 3.0 mph 12.0 mph 60 % 0.00 in
14:10 81.0 °F 65.3 °F 30.06 in ESE 5.0 mph 12.0 mph 59 % 0.00 in
14:15 81.1 °F 64.9 °F 30.06 in East 5.0 mph 15.0 mph 58 % 0.00 in
14:20 81.0 °F 64.8 °F 30.06 in SSE 6.0 mph 15.0 mph 58 % 0.00 in
14:25 80.6 °F 64.4 °F 30.06 in East 10.0 mph 15.0 mph 58 % 0.00 in
14:30 81.1 °F 64.9 °F 30.06 in ESE 5.0 mph 14.0 mph 58 % 0.00 in
14:35 81.3 °F 65.1 °F 30.05 in ESE 3.0 mph 14.0 mph 58 % 0.00 in
14:40 81.7 °F 64.9 °F 30.05 in SE 8.0 mph 14.0 mph 57 % 0.00 in
14:45 81.0 °F 63.9 °F 30.05 in SSE 5.0 mph 12.0 mph 56 % 0.00 in
14:50 80.8 °F 63.7 °F 30.05 in SE 4.0 mph 12.0 mph 56 % 0.00 in
14:55 81.0 °F 64.8 °F 30.05 in SSE 3.0 mph 9.0 mph 58 % 0.00 in
15:00 81.0 °F 64.2 °F 30.05 in SSE 5.0 mph 11.0 mph 57 % 0.00 in
15:05 80.4 °F 63.3 °F 30.05 in SSE 5.0 mph 11.0 mph 56 % 0.00 in
15:10 80.1 °F 63.9 °F 30.05 in ESE 8.0 mph 11.0 mph 58 % 0.00 in
15:15 80.1 °F 63.5 °F 30.05 in SE 5.0 mph 9.0 mph 57 % 0.00 in
15:20 79.5 °F 62.4 °F 30.04 in South 4.0 mph 11.0 mph 56 % 0.00 in
15:25 79.3 °F 62.8 °F 30.04 in ESE 4.0 mph 11.0 mph 57 % 0.00 in
15:30 79.5 °F 63.0 °F 30.04 in SE 5.0 mph 11.0 mph 57 % 0.00 in
15:35 79.9 °F 63.9 °F 30.04 in SE 3.0 mph 10.0 mph 58 % 0.00 in
15:40 80.4 °F 63.9 °F 30.04 in East 4.0 mph 9.0 mph 57 % 0.00 in
15:45 81.1 °F 64.0 °F 30.04 in ESE 3.0 mph 9.0 mph 56 % 0.00 in
15:50 81.1 °F 64.4 °F 30.04 in East 4.0 mph 9.0 mph 57 % 0.00 in
15:55 81.0 °F 64.2 °F 30.04 in SSE 5.0 mph 9.0 mph 57 % 0.00 in
16:00 80.4 °F 64.2 °F 30.04 in SE 3.0 mph 9.0 mph 58 % 0.00 in
16:05 80.1 °F 63.9 °F 30.03 in ESE 3.0 mph 9.0 mph 58 % 0.00 in
16:10 80.1 °F 64.4 °F 30.03 in SSE 6.0 mph 9.0 mph 59 % 0.00 in
16:15 80.2 °F 64.6 °F 30.03 in SSE 9.0 mph 9.0 mph 59 % 0.00 in
16:20 80.6 °F 64.9 °F 30.03 in East 9.0 mph 11.0 mph 59 % 0.00 in
16:25 80.4 °F 64.2 °F 30.03 in ENE 3.0 mph 11.0 mph 58 % 0.00 in
16:30 80.8 °F 65.1 °F 30.03 in South 4.0 mph 11.0 mph 59 % 0.00 in
16:35 81.0 °F 64.2 °F 30.02 in SSE 6.0 mph 11.0 mph 57 % 0.00 in
16:40 80.4 °F 64.8 °F 30.02 in ESE 7.0 mph 11.0 mph 59 % 0.00 in
16:45 80.2 °F 64.6 °F 30.03 in South 6.0 mph 11.0 mph 59 % 0.00 in
16:50 79.9 °F 64.8 °F 30.03 in ESE 11.0 mph 11.0 mph 60 % 0.00 in
16:55 79.5 °F 64.4 °F 30.03 in SE 3.0 mph 11.0 mph 60 % 0.00 in
17:00 79.5 °F 64.9 °F 30.03 in SE 3.0 mph 11.0 mph 61 % 0.00 in
17:05 79.3 °F 65.1 °F 30.03 in SSW 4.0 mph 11.0 mph 62 % 0.00 in
17:10 79.7 °F 65.1 °F 30.03 in ESE 3.0 mph 9.0 mph 61 % 0.00 in
17:15 79.5 °F 64.9 °F 30.03 in SE 5.0 mph 9.0 mph 61 % 0.00 in
17:20 79.5 °F 65.8 °F 30.03 in SSE 4.0 mph 9.0 mph 63 % 0.00 in
17:25 79.5 °F 65.8 °F 30.03 in ESE 3.0 mph 9.0 mph 63 % 0.00 in
17:31 79.3 °F 65.1 °F 30.03 in SSE 5.0 mph 11.0 mph 62 % 0.00 in
17:35 79.3 °F 65.1 °F 30.03 in East 6.0 mph 11.0 mph 62 % 0.00 in
17:40 79.2 °F 65.8 °F 30.03 in ESE 4.0 mph 11.0 mph 64 % 0.00 in
17:46 79.2 °F 66.4 °F 30.03 in ESE 6.0 mph 9.0 mph 65 % 0.00 in
17:51 78.4 °F 65.7 °F 30.03 in SSE 5.0 mph 13.0 mph 65 % 0.00 in
17:55 78.1 °F 65.3 °F 30.03 in SSE 5.0 mph 13.0 mph 65 % 0.00 in
18:01 78.1 °F 65.8 °F 30.03 in SSE 4.0 mph 13.0 mph 66 % 0.00 in
18:06 78.1 °F 66.2 °F 30.03 in East 6.0 mph 11.0 mph 67 % 0.00 in
18:10 78.1 °F 65.8 °F 30.03 in ESE 4.0 mph 12.0 mph 66 % 0.00 in
18:15 78.3 °F 66.4 °F 30.03 in SE 3.0 mph 12.0 mph 67 % 0.00 in
18:20 78.3 °F 66.4 °F 30.03 in SE 2.0 mph 12.0 mph 67 % 0.00 in
18:26 77.9 °F 66.0 °F 30.03 in SE 2.0 mph 8.0 mph 67 % 0.00 in
18:31 77.7 °F 65.8 °F 30.03 in SE 2.0 mph 7.0 mph 67 % 0.00 in
18:35 77.5 °F 65.7 °F 30.03 in ENE 5.0 mph 8.0 mph 67 % 0.00 in
18:40 77.4 °F 66.0 °F 30.03 in SE 5.0 mph 8.0 mph 68 % 0.00 in
18:46 77.2 °F 65.8 °F 30.02 in SE 2.0 mph 12.0 mph 68 % 0.00 in
18:51 77.0 °F 66.0 °F 30.03 in ESE 5.0 mph 12.0 mph 69 % 0.00 in
18:56 76.8 °F 65.5 °F 30.03 in East 3.0 mph 12.0 mph 68 % 0.00 in
19:01 76.6 °F 65.7 °F 30.02 in SSE 3.0 mph 11.0 mph 69 % 0.00 in
19:06 76.5 °F 65.1 °F 30.02 in East 5.0 mph 10.0 mph 68 % 0.00 in
19:11 76.3 °F 65.3 °F 30.02 in South 2.0 mph 10.0 mph 69 % 0.00 in
19:16 76.1 °F 65.7 °F 30.02 in SE 1.0 mph 10.0 mph 70 % 0.00 in
19:18 76.1 °F 65.7 °F 30.02 in SSW 1.0 mph 10.0 mph 70 % 0.00 in
19:23 75.9 °F 65.5 °F 30.03 in ESE 2.0 mph 10.0 mph 70 % 0.00 in
19:28 75.7 °F 65.7 °F 30.02 in SE 2.0 mph 6.0 mph 71 % 0.00 in
19:33 75.7 °F 65.7 °F 30.03 in East 4.0 mph 7.0 mph 71 % 0.00 in
19:38 75.6 °F 65.8 °F 30.03 in SSE 3.0 mph 7.0 mph 72 % 0.00 in
19:43 75.4 °F 65.7 °F 30.03 in South 2.0 mph 10.0 mph 72 % 0.00 in
19:48 75.0 °F 65.8 °F 30.03 in ESE 5.0 mph 13.0 mph 73 % 0.00 in
19:53 75.0 °F 65.8 °F 30.03 in East 2.0 mph 13.0 mph 73 % 0.00 in
19:58 74.8 °F 66.0 °F 30.03 in East 4.0 mph 13.0 mph 74 % 0.00 in
20:03 74.7 °F 65.8 °F 30.03 in SE 2.0 mph 8.0 mph 74 % 0.00 in
20:08 74.3 °F 65.8 °F 30.03 in SE 2.0 mph 7.0 mph 75 % 0.00 in
20:14 74.1 °F 65.7 °F 30.03 in NE 6.0 mph 7.0 mph 75 % 0.00 in
20:19 73.9 °F 65.8 °F 30.03 in SSE 4.0 mph 8.0 mph 76 % 0.00 in
20:24 73.8 °F 66.0 °F 30.03 in SE 4.0 mph 8.0 mph 77 % 0.00 in
20:29 73.6 °F 65.8 °F 30.03 in Calm   8.0 mph 77 % 0.00 in
20:34 73.2 °F 66.0 °F 30.03 in East 2.0 mph 7.0 mph 78 % 0.00 in
20:39 73.0 °F 65.8 °F 30.04 in SSW 2.0 mph 8.0 mph 78 % 0.00 in
20:44 72.9 °F 66.0 °F 30.03 in ESE 4.0 mph 8.0 mph 79 % 0.00 in
20:49 72.9 °F 66.0 °F 30.04 in ESE 4.0 mph 8.0 mph 79 % 0.00 in
20:54 72.7 °F 66.2 °F 30.03 in SE 2.0 mph 9.0 mph 80 % 0.00 in
20:59 72.7 °F 66.2 °F 30.03 in ESE 2.0 mph 9.0 mph 80 % 0.00 in
21:04 72.3 °F 65.8 °F 30.04 in ESE 6.0 mph 9.0 mph 80 % 0.00 in
21:09 72.3 °F 66.2 °F 30.04 in SE 3.0 mph 9.0 mph 81 % 0.00 in
21:14 72.1 °F 66.0 °F 30.04 in SE 2.0 mph 9.0 mph 81 % 0.00 in
21:19 72.1 °F 66.0 °F 30.04 in SE 2.0 mph 9.0 mph 81 % 0.00 in
21:24 72.0 °F 66.2 °F 30.04 in East 3.0 mph 7.0 mph 82 % 0.00 in
21:29 71.8 °F 66.0 °F 30.04 in ESE 3.0 mph 7.0 mph 82 % 0.00 in
21:34 71.8 °F 66.4 °F 30.04 in ESE 4.0 mph 7.0 mph 83 % 0.00 in
21:39 71.6 °F 66.2 °F 30.04 in SE 3.0 mph 5.0 mph 83 % 0.00 in
21:44 71.4 °F 66.4 °F 30.04 in SE 1.0 mph 7.0 mph 84 % 0.00 in
21:49 71.2 °F 66.2 °F 30.04 in East 2.0 mph 7.0 mph 84 % 0.00 in
21:54 71.2 °F 66.6 °F 30.04 in ESE 1.0 mph 7.0 mph 85 % 0.00 in
21:59 71.1 °F 66.4 °F 30.05 in Calm   6.0 mph 85 % 0.00 in
22:04 71.1 °F 66.4 °F 30.05 in Calm   4.0 mph 85 % 0.00 in
22:09 70.9 °F 66.6 °F 30.05 in SE 1.0 mph 4.0 mph 86 % 0.00 in
22:14 70.7 °F 66.4 °F 30.05 in Calm   4.0 mph 86 % 0.00 in
22:19 70.5 °F 66.4 °F 30.05 in SE 2.0 mph 4.0 mph 87 % 0.00 in
22:24 70.3 °F 66.2 °F 30.05 in East 2.0 mph 4.0 mph 87 % 0.00 in
22:30 70.3 °F 66.2 °F 30.05 in ESE 2.0 mph 4.0 mph 87 % 0.00 in
22:35 70.3 °F 66.6 °F 30.05 in SE 1.0 mph 3.0 mph 88 % 0.00 in
22:40 70.2 °F 66.4 °F 30.05 in Calm   3.0 mph 88 % 0.00 in
22:45 70.0 °F 66.2 °F 30.05 in Calm   3.0 mph 88 % 0.00 in
22:50 69.8 °F 66.0 °F 30.05 in Calm   3.0 mph 88 % 0.00 in
22:55 69.6 °F 66.2 °F 30.05 in SE 1.0 mph 3.0 mph 89 % 0.00 in
23:00 69.6 °F 66.2 °F 30.05 in ESE 1.0 mph 2.0 mph 89 % 0.00 in
23:05 69.4 °F 66.0 °F 30.05 in SE 1.0 mph 2.0 mph 89 % 0.00 in
23:10 69.4 °F 66.0 °F 30.05 in Calm   3.0 mph 89 % 0.00 in
23:15 69.3 °F 65.8 °F 30.05 in ESE 1.0 mph 3.0 mph 89 % 0.00 in
23:20 69.3 °F 66.2 °F 30.04 in Calm   3.0 mph 90 % 0.00 in
23:25 69.1 °F 66.0 °F 30.04 in Calm   2.0 mph 90 % 0.00 in
23:30 68.9 °F 65.8 °F 30.04 in Calm   2.0 mph 90 % 0.00 in
23:35 68.7 °F 65.7 °F 30.04 in SE 1.0 mph 2.0 mph 90 % 0.00 in
23:40 68.7 °F 66.0 °F 30.04 in SE 1.0 mph 2.0 mph 91 % 0.00 in
23:45 68.5 °F 65.8 °F 30.04 in Calm   2.0 mph 91 % 0.00 in
23:50 68.5 °F 65.8 °F 30.04 in Calm   2.0 mph 91 % 0.00 in
23:55 68.4 °F 65.7 °F 30.05 in Calm   1.0 mph 91 % 0.00 in
Spring, Texas: Villages of Bridgestone
Compliments of Weather Underground - 2.75 mb

Script developed by  Jim McMurry - jmcmurry@mwt.net Adapted for the template by  Wim van der Kuil - Leuven-Template.eu

You find our weather info also at:

UK Metoffice

WeatherCloud

Weather Underground

Mid-South Weather Network

AWEKAS

Citizen Weather Observer Program (CWOP)

HAMweather, WeatherForYou, PWS Weather

Equipment we use:

Weather-station
Davis Vantage Vue

Weather-program
Meteohub

Weather-server
Debian 7.9 x86 (Guest)

Provider
DreamHost

Davis Vantage Vue

Meteohub

Debian 7.9 x86 (Guest)

DreamHost